KELY/ELY METAR and TAF weather

Enter ICAO airport designator
Station Type Date Time Source
KELY METAR 2019/10/21 04:53 UTC NOAA

KELY 210453Z AUTO 18003KT 10SM BKN055 OVC070 03/M11 A3018 RMK AO2 SLP204 T00331111


Station Type Date Time Source
KELY Decoded METAR 2019/10/21 04:53 UTC NOAA

ELY AIRPORT (YELLAND FIELD), NV, United States (KELY) 39-18N 114-51W 1906M
Oct 21, 2019 - 12:53 AM EDT / 2019.10.21 0453 UTC
Wind: from the S (180 degrees) at 3 MPH (3 KT):0
Visibility: 10 mile(s):0
Sky conditions: overcast
Temperature: 37.9 F (3.3 C)
Dew Point: 12.0 F (-11.1 C)
Relative Humidity: 33%
Pressure (altimeter): 30.18 in. Hg (1022 hPa)
ob: KELY 210453Z AUTO 18003KT 10SM BKN055 OVC070 03/M11 A3018 RMK AO2 SLP204 T00331111
cycle: 5

Station Type Date Time Source
KELY TAF 2019/10/20 18:22 UTC NOAA

TAF KELY 201720Z 2018/2118 32005KT P6SM FEW120 SCT180
FM202000 31010G18KT P6SM BKN050
FM210200 18007KT P6SM SCT050

Example: see airport list